LICT/TPS METAR and TAF weather

Enter ICAO airport designator
Station Type Date Time Source
LICT METAR 2021/07/26 11:55 UTC NOAA

LICT 261155Z 17019KT CAVOK 35/12 Q1014


Station Type Date Time Source
LICT Decoded METAR 2021/07/26 11:55 UTC NOAA

Trapani / Birgi, Italy (LICT) 37-55N 012-30E 14M
Jul 26, 2021 - 07:55 AM EDT / 2021.07.26 1155 UTC
Wind: from the S (170 degrees) at 22 MPH (19 KT):0
Visibility: greater than 7 mile(s):0
Temperature: 95 F (35 C)
Dew Point: 53 F (12 C)
Relative Humidity: 24%
Pressure (altimeter): 29.94 in. Hg (1014 hPa)
ob: LICT 261155Z 17019KT CAVOK 35/12 Q1014
cycle: 12

Station Type Date Time Source
LICT TAF 2021/02/10 12:24 UTC NOAA

TAF TAF LICT 101100Z 1012/1024 18015KT CAVOK
BECMG 1015/1017 7000 RA BKN018
BECMG 1018/1020 26020G32KT
TEMPO 1020/1024 27025G40KT TSRA SCT015CB BKN018

Example: see airport list